Air Transat Virtuel

BIKF Airport Information

Runway Information
Runway 01 Length 10020 ft width 197 ft
Elevation 135 ft Threshold ft Heading 0
Runway 19 Length 10020 ft Width 197 ft
Elevation 161 ft Threshold ft Heading 180
Runway 10 Length 10056 ft width 197 ft
Elevation 109 ft Threshold 43 ft Heading 90
Runway 28 Length 10056 ft Width 197 ft
Elevation 168 ft Threshold 43 ft Heading 270
Airport Frequencies
Type A/G Name AIR GND Frequency 131.9 MHZ
Type APP Name APP Frequency 119.3 MHZ
Type ATIS Name ATIS Frequency 128.3 MHZ
Type DEP Name DEP Frequency 119.3 MHZ
Type GND Name GND Frequency 121.9 MHZ
Type OPS Name BASE OPS Frequency 129 MHZ
Type PMSV Name PMSV METR Frequency 125 MHZ
Type TWR Name TWR Frequency 118.3 MHZ
Airport Navaids
Type VORTAC Name Keflavik Frequency 112000 KHZ
Type NDB Name Keflavik Frequency 392 KHZ
Type NDB Name Oscar Kilo Frequency 364 KHZ
Airport Weather Information & NOTAM
ADDS - METARS form results

(0308 UTC 09 December 2022)
Data provider http://aviationweather.gov/metar/data/
 
METAR text: BIKF 090300Z 03019KT 9999 BKN026 M01/M06 Q1035
Conditions at: BIKF (KEFLAVIK (CIV/MI, IS) observed 0300 UTC 09 December 2022
Temperature: -1.0°C (30°F)
Dewpoint: -6.0°C (21°F) [RH = 69%]
Pressure (altimeter): 30.56 inches Hg (1035.0 mb)
Winds: from the NNE (30 degrees) at 22 MPH (19 knots; 9.8 m/s)
Visibility: 6 or more miles (10+ km)
Ceiling: 2600 feet AGL
Clouds: broken clouds at 2600 feet AGL
Weather: no significant weather observed at this time

METAR text: BIKF 090230Z 03019G30KT 9999 BKN027 M01/M05 Q1035
Conditions at: BIKF (KEFLAVIK (CIV/MI, IS) observed 0230 UTC 09 December 2022
Temperature: -1.0°C (30°F)
Dewpoint: -5.0°C (23°F) [RH = 74%]
Pressure (altimeter): 30.56 inches Hg (1035.0 mb)
Winds: from the NNE (30 degrees) at 22 MPH (19 knots; 9.8 m/s)
gusting to 34 MPH (30 knots; 15.4 m/s)
Visibility: 6 or more miles (10+ km)
Ceiling: 2700 feet AGL
Clouds: broken clouds at 2700 feet AGL
Weather: no significant weather observed at this time

Forecast for: BIKF (KEFLAVIK (CIV/MI, IS)
Text: TAF BIKF 090101Z 0903/1003 02020G30KT 9999 SCT032 TXM00/0915Z TNM02/0903Z
Forecast period: 0300 to 1500 UTC 09 December 2022
Forecast type: FROM: standard forecast or significant change
Winds: from the NNE (20 degrees) at 23 MPH (20 knots; 10.3 m/s)
gusting to 34 MPH (30 knots; 15.4 m/s)
Visibility: 6 or more miles (10+ km)
Ceiling: at least 12,000 feet AGL
Clouds: scattered clouds at 3200 feet AGL
Weather: no significant weather forecast for this period
Text: BECMG 0915/0917 03016KT
Forecast period: 1500 UTC 09 December 2022 to 0300 UTC 10 December 2022
Forecast type: BECOMING: Conditions expected to become as follows by 1700 UTC 09 December 2022
Winds: from the NNE (30 degrees) at 18 MPH (16 knots; 8.2 m/s)
Visibility: 6 or more miles (10+ km)
Ceiling: at least 12,000 feet AGL
Clouds: scattered clouds at 3200 feet AGL
Weather: no significant weather forecast for this period